Aksa, Russia
Current Conditions -  °F | °C
As of 11:00 PM on Monday 24 Nov 2014 (Local Time) from UIAA Reporting Station
Haze Haze  
Wind Chill: -2°   Ceiling: Unl
Heat Index: -2°   Visibility: 3mi
Dew Point: -8°   Wind: 0mph
Humidity: 78%   Direction: NA
Pressure: 29.68"   Gusts: NA
Location:  50.27°N, 113.27°E
Report Text: UIAA 241400Z 00000MPS 5000 BR SCT200 M19/M22 Q1005 NOSIG RMKQFE695 29CLRD70
Loading
Personal Weather Stations






























Interactive Weather Map New forecast layout! Learn more

10-Day Weather Forecast

Advertisements
Track Severe Weather on mobile